Time;durP1;ratioP1;P1;durP2;ratioP2;P2;SDS_P1;SDS_P2;PMS_P1;PMS_P2;Temp;Humidity;BMP_temperature;BMP_pressure;BME280_temperature;BME280_humidity;BME280_pressure;Samples;Min_cycle;Max_cycle;Signal;HPM_P1;HPM_P2
2022/06/17 00:02:07;;;;;;;3.78;2.40;;;;;;;;;;5061371;28;20025;-75
2022/06/17 00:04:33;;;;;;;2.85;2.17;;;;;;;;;;5072246;28;20364;-74
2022/06/17 00:07:05;;;;;;;4.45;2.40;;;;;;;;;;5063086;28;20043;-76
2022/06/17 00:09:32;;;;;;;3.88;2.15;;;;;;;;;;5060924;28;20032;-75
2022/06/17 00:11:58;;;;;;;3.50;2.40;;;;;;;;;;5061272;28;20071;-76
2022/06/17 00:14:29;;;;;;;2.20;2.00;;;;;;;;;;5061637;28;20085;-77
2022/06/17 00:16:55;;;;;;;3.22;2.20;;;;;;;;;;5064061;28;20083;-76
2022/06/17 00:19:21;;;;;;;3.03;2.33;;;;;;;;;;5062562;28;20055;-75
2022/06/17 00:21:49;;;;;;;4.38;2.20;;;;;;;;;;5072080;28;20020;-76
2022/06/17 00:24:17;;;;;;;4.78;2.42;;;;;;;;;;5063706;28;20021;-75
2022/06/17 00:26:44;;;;;;;3.20;2.30;;;;;;;;;;5065986;28;20078;-76
2022/06/17 00:29:13;;;;;;;4.28;2.30;;;;;;;;;;5063340;28;20029;-75
2022/06/17 00:31:40;;;;;;;4.95;2.75;;;;;;;;;;5057316;28;20036;-75
2022/06/17 00:34:06;;;;;;;2.88;1.90;;;;;;;;;;5056362;28;20040;-76
2022/06/17 00:36:32;;;;;;;3.45;2.17;;;;;;;;;;5065141;28;20048;-76
2022/06/17 00:38:58;;;;;;;5.75;2.50;;;;;;;;;;5069414;28;20107;-76
2022/06/17 00:41:31;;;;;;;2.42;2.22;;;;;;;;;;5066384;28;20027;-76
2022/06/17 00:43:59;;;;;;;2.85;2.10;;;;;;;;;;5053650;28;20074;-76
2022/06/17 00:46:34;;;;;;;2.50;2.10;;;;;;;;;;5067429;28;20044;-76
2022/06/17 00:49:09;;;;;;;2.40;2.20;;;;;;;;;;5058196;28;20035;-75
2022/06/17 00:51:44;;;;;;;4.22;2.30;;;;;;;;;;5060578;28;20052;-76
2022/06/17 00:54:27;;;;;;;2.65;1.88;;;;;;;;;;5063243;28;20029;-76
2022/06/17 00:56:54;;;;;;;3.40;2.35;;;;;;;;;;5058211;28;20108;-75
2022/06/17 00:59:20;;;;;;;2.95;2.28;;;;;;;;;;5063647;28;20061;-75
2022/06/17 01:01:51;;;;;;;2.55;2.03;;;;;;;;;;5070452;28;20016;-76
2022/06/17 01:04:20;;;;;;;3.63;2.13;;;;;;;;;;5062544;28;20024;-75
2022/06/17 01:07:06;;;;;;;2.40;2.20;;;;;;;;;;5069895;28;20025;-75
2022/06/17 01:12:20;;;;;;;4.00;2.20;;;;;;;;;;5069948;28;20109;-76
2022/06/17 01:14:46;;;;;;;3.10;2.35;;;;;;;;;;5083314;28;20139;-76
2022/06/17 01:17:14;;;;;;;3.45;2.25;;;;;;;;;;5063206;28;20379;-76
2022/06/17 01:19:40;;;;;;;2.80;2.03;;;;;;;;;;5062336;28;20024;-76
2022/06/17 01:22:18;;;;;;;3.03;1.92;;;;;;;;;;5062547;28;20025;-76
2022/06/17 01:24:45;;;;;;;5.28;2.20;;;;;;;;;;5066758;28;20025;-76
2022/06/17 01:27:14;;;;;;;3.47;2.17;;;;;;;;;;5057619;28;20033;-75
2022/06/17 01:29:40;;;;;;;3.25;1.90;;;;;;;;;;5063623;28;20040;-76
2022/06/17 01:32:07;;;;;;;7.93;2.15;;;;;;;;;;5062925;28;20037;-75
2022/06/17 01:34:33;;;;;;;3.05;2.17;;;;;;;;;;5067007;28;20036;-75
2022/06/17 01:37:00;;;;;;;2.40;2.10;;;;;;;;;;5068956;28;20096;-75
2022/06/17 01:39:26;;;;;;;3.55;2.25;;;;;;;;;;5062114;28;20107;-76
2022/06/17 01:41:53;;;;;;;2.17;1.98;;;;;;;;;;5071246;28;20042;-76
2022/06/17 01:44:25;;;;;;;2.92;2.00;;;;;;;;;;5066416;28;20061;-75
2022/06/17 01:46:52;;;;;;;2.42;1.90;;;;;;;;;;5064975;28;20389;-75
2022/06/17 01:49:26;;;;;;;3.83;2.10;;;;;;;;;;5066986;28;20554;-76
2022/06/17 01:52:02;;;;;;;5.03;2.53;;;;;;;;;;5066229;28;20062;-75
2022/06/17 01:54:40;;;;;;;2.85;2.20;;;;;;;;;;5059060;28;20298;-76
2022/06/17 01:57:08;;;;;;;4.72;2.03;;;;;;;;;;5066887;28;20029;-77
2022/06/17 01:59:36;;;;;;;4.68;2.15;;;;;;;;;;5072921;28;20048;-76
2022/06/17 02:02:03;;;;;;;5.40;2.00;;;;;;;;;;5065521;28;20020;-75
2022/06/17 02:04:35;;;;;;;3.28;2.10;;;;;;;;;;5059800;28;20021;-76
2022/06/17 02:07:12;;;;;;;2.60;2.13;;;;;;;;;;5068556;28;20075;-75
2022/06/17 02:09:39;;;;;;;5.32;2.25;;;;;;;;;;5063349;28;20028;-75
2022/06/17 02:12:05;;;;;;;2.88;2.05;;;;;;;;;;5061120;28;20020;-77
2022/06/17 02:14:32;;;;;;;1.90;1.80;;;;;;;;;;5059973;28;20490;-75
2022/06/17 02:16:59;;;;;;;1.77;1.58;;;;;;;;;;5063263;28;20542;-75
2022/06/17 02:19:26;;;;;;;1.88;1.67;;;;;;;;;;5061461;28;20029;-77
2022/06/17 02:22:13;;;;;;;2.85;1.70;;;;;;;;;;5064360;28;20021;-76
2022/06/17 02:24:39;;;;;;;2.53;1.75;;;;;;;;;;5065012;28;20016;-76
2022/06/17 02:27:07;;;;;;;1.60;1.50;;;;;;;;;;5064299;28;20560;-77
2022/06/17 02:29:34;;;;;;;3.63;1.70;;;;;;;;;;5059037;28;20037;-76
2022/06/17 02:32:02;;;;;;;1.90;1.70;;;;;;;;;;5067184;28;20036;-75
2022/06/17 02:34:28;;;;;;;2.35;1.70;;;;;;;;;;5062880;28;20051;-76
2022/06/17 02:36:57;;;;;;;2.17;1.60;;;;;;;;;;5056562;28;20025;-76
2022/06/17 02:39:23;;;;;;;2.75;1.50;;;;;;;;;;5057646;28;20440;-74
2022/06/17 02:41:51;;;;;;;1.70;1.60;;;;;;;;;;5066479;28;20050;-75
2022/06/17 02:44:21;;;;;;;3.58;1.90;;;;;;;;;;5064907;28;20382;-75
2022/06/17 02:46:48;;;;;;;3.42;1.88;;;;;;;;;;5066157;28;20075;-75
2022/06/17 02:49:16;;;;;;;2.47;1.45;;;;;;;;;;5070977;28;20027;-76
2022/06/17 02:51:43;;;;;;;1.80;1.30;;;;;;;;;;5056900;28;20033;-77
2022/06/17 02:54:11;;;;;;;2.42;1.48;;;;;;;;;;5060078;28;20029;-76
2022/06/17 02:56:38;;;;;;;1.80;1.67;;;;;;;;;;5057922;28;20029;-76
2022/06/17 02:59:14;;;;;;;2.58;1.80;;;;;;;;;;5057882;28;20039;-77
2022/06/17 03:01:42;;;;;;;1.95;1.45;;;;;;;;;;5060754;28;20044;-75
2022/06/17 03:04:13;;;;;;;2.60;1.50;;;;;;;;;;5066978;28;20027;-74
2022/06/17 03:06:40;;;;;;;1.35;1.23;;;;;;;;;;5061501;28;20017;-76
2022/06/17 03:09:17;;;;;;;2.22;1.55;;;;;;;;;;5060531;28;20031;-76
2022/06/17 03:11:44;;;;;;;2.75;1.42;;;;;;;;;;5062756;28;20062;-78
2022/06/17 03:14:12;;;;;;;1.45;1.35;;;;;;;;;;5063347;28;20423;-76
2022/06/17 03:16:38;;;;;;;3.80;1.67;;;;;;;;;;5087848;28;20108;-76
2022/06/17 03:19:04;;;;;;;2.25;1.85;;;;;;;;;;5066956;28;20445;-76
2022/06/17 03:21:30;;;;;;;1.85;1.55;;;;;;;;;;5060568;28;20032;-74
2022/06/17 03:24:00;;;;;;;1.83;1.60;;;;;;;;;;5067316;28;20485;-76
2022/06/17 03:26:28;;;;;;;2.28;2.08;;;;;;;;;;5063123;28;20029;-76
2022/06/17 03:28:55;;;;;;;2.63;1.50;;;;;;;;;;5064260;28;20028;-75
2022/06/17 03:31:28;;;;;;;2.88;1.48;;;;;;;;;;5061094;28;20059;-76
2022/06/17 03:34:08;;;;;;;1.70;1.60;;;;;;;;;;5061499;28;20029;-77
2022/06/17 03:37:04;;;;;;;3.70;1.73;;;;;;;;;;5062146;28;20028;-74
2022/06/17 03:39:34;;;;;;;3.80;1.88;;;;;;;;;;5018930;28;20072;-77
2022/06/17 03:42:03;;;;;;;2.80;1.67;;;;;;;;;;5062594;28;20029;-76
2022/06/17 03:44:32;;;;;;;2.92;1.83;;;;;;;;;;5056166;28;20052;-75
2022/06/17 03:47:19;;;;;;;4.00;1.75;;;;;;;;;;5054557;28;20017;-74
2022/06/17 03:49:50;;;;;;;3.35;1.80;;;;;;;;;;5049691;28;20040;-76
2022/06/17 03:52:24;;;;;;;2.03;1.77;;;;;;;;;;5062711;28;20029;-76
2022/06/17 03:54:50;;;;;;;2.78;2.03;;;;;;;;;;5062172;28;20017;-75
2022/06/17 03:57:17;;;;;;;4.53;2.70;;;;;;;;;;5060236;28;20034;-74
2022/06/17 03:59:45;;;;;;;2.45;1.92;;;;;;;;;;5066105;28;20487;-75
2022/06/17 04:02:16;;;;;;;3.88;1.90;;;;;;;;;;5060936;28;20028;-76
2022/06/17 04:04:44;;;;;;;4.75;1.67;;;;;;;;;;5064861;28;20028;-76
2022/06/17 04:07:11;;;;;;;3.17;1.83;;;;;;;;;;5056364;28;20024;-76
2022/06/17 04:09:40;;;;;;;2.90;1.70;;;;;;;;;;5062615;28;20033;-77
2022/06/17 04:12:19;;;;;;;3.05;2.35;;;;;;;;;;5064825;28;20036;-76
2022/06/17 04:14:45;;;;;;;4.28;2.13;;;;;;;;;;5070643;28;20052;-76
2022/06/17 04:17:21;;;;;;;2.65;1.73;;;;;;;;;;5062174;28;20053;-76
2022/06/17 04:19:51;;;;;;;6.72;2.20;;;;;;;;;;5067946;28;20043;-76
2022/06/17 04:22:36;;;;;;;3.55;2.22;;;;;;;;;;5059605;28;20541;-76
2022/06/17 04:25:04;;;;;;;3.97;2.20;;;;;;;;;;5056893;28;20039;-76
2022/06/17 04:27:56;;;;;;;2.90;1.88;;;;;;;;;;5056337;28;20029;-75
2022/06/17 04:30:18;;;;;;;6.15;2.33;;;;;;;;;;5055925;28;20036;-76
2022/06/17 04:32:44;;;;;;;2.95;2.58;;;;;;;;;;5059732;28;20102;-75
2022/06/17 04:35:13;;;;;;;4.18;2.25;;;;;;;;;;5065097;28;20943;-75
2022/06/17 04:37:40;;;;;;;5.97;2.47;;;;;;;;;;5062160;28;20059;-76
2022/06/17 04:40:13;;;;;;;3.80;2.55;;;;;;;;;;5058419;28;20028;-75
2022/06/17 04:42:41;;;;;;;4.47;2.40;;;;;;;;;;5059312;28;20418;-76
2022/06/17 04:45:16;;;;;;;4.53;2.60;;;;;;;;;;5064459;28;20028;-77
2022/06/17 04:47:43;;;;;;;4.22;2.40;;;;;;;;;;5056043;28;20021;-76
2022/06/17 04:50:11;;;;;;;3.70;2.40;;;;;;;;;;5061814;28;20624;-76
2022/06/17 04:52:49;;;;;;;7.35;2.65;;;;;;;;;;5066794;28;20032;-76
2022/06/17 04:55:20;;;;;;;5.40;3.00;;;;;;;;;;5060689;28;20436;-75
2022/06/17 04:57:47;;;;;;;4.93;2.35;;;;;;;;;;5066220;28;20044;-76
2022/06/17 05:00:18;;;;;;;3.00;2.45;;;;;;;;;;5061856;28;20060;-76
2022/06/17 05:02:44;;;;;;;6.05;2.90;;;;;;;;;;5061576;28;20017;-76
2022/06/17 05:05:12;;;;;;;4.57;2.58;;;;;;;;;;5062690;28;20359;-75
2022/06/17 05:07:41;;;;;;;6.15;3.45;;;;;;;;;;5064802;28;20025;-76
2022/06/17 05:10:12;;;;;;;3.35;2.72;;;;;;;;;;5061821;28;20505;-75
2022/06/17 05:12:42;;;;;;;6.82;2.60;;;;;;;;;;5069776;28;20017;-74
2022/06/17 05:15:11;;;;;;;5.85;2.40;;;;;;;;;;5079709;28;20502;-76
2022/06/17 05:17:38;;;;;;;4.63;3.33;;;;;;;;;;5054624;28;20487;-76
2022/06/17 05:20:05;;;;;;;5.75;2.83;;;;;;;;;;5057663;28;20097;-76
2022/06/17 05:22:57;;;;;;;3.47;2.58;;;;;;;;;;5061245;28;20374;-76
2022/06/17 05:25:28;;;;;;;8.05;3.40;;;;;;;;;;5065136;28;20090;-75
2022/06/17 05:27:55;;;;;;;6.20;3.05;;;;;;;;;;5057320;28;20032;-77
2022/06/17 05:30:21;;;;;;;6.40;3.50;;;;;;;;;;5069040;28;20036;-75
2022/06/17 05:32:49;;;;;;;6.38;3.08;;;;;;;;;;5069660;28;20021;-76
2022/06/17 05:35:16;;;;;;;4.07;2.50;;;;;;;;;;5067217;28;20028;-77
2022/06/17 05:37:42;;;;;;;9.05;3.28;;;;;;;;;;5061879;28;20027;-77
2022/06/17 05:40:09;;;;;;;5.22;2.55;;;;;;;;;;5061496;28;20048;-76
2022/06/17 05:42:35;;;;;;;9.48;3.78;;;;;;;;;;5062203;28;20532;-77
2022/06/17 05:45:02;;;;;;;6.75;3.08;;;;;;;;;;5058459;28;20529;-76
2022/06/17 05:47:28;;;;;;;4.43;3.20;;;;;;;;;;5061904;28;20138;-77
2022/06/17 05:49:54;;;;;;;3.97;2.85;;;;;;;;;;5065068;28;20029;-77
2022/06/17 05:52:20;;;;;;;3.65;3.05;;;;;;;;;;5059988;28;20025;-77
2022/06/17 05:54:46;;;;;;;9.75;3.67;;;;;;;;;;5064348;28;20077;-77
2022/06/17 05:57:13;;;;;;;7.80;2.78;;;;;;;;;;5064196;28;20025;-77
2022/06/17 05:59:39;;;;;;;5.55;2.78;;;;;;;;;;5064272;28;20032;-77
2022/06/17 06:02:06;;;;;;;8.10;3.88;;;;;;;;;;5059498;28;20025;-76
2022/06/17 06:04:32;;;;;;;6.78;3.50;;;;;;;;;;5058914;28;20051;-76
2022/06/17 06:06:59;;;;;;;6.97;3.30;;;;;;;;;;5063187;28;20032;-77
2022/06/17 06:09:26;;;;;;;4.43;2.95;;;;;;;;;;5063275;28;20085;-76
2022/06/17 06:11:52;;;;;;;6.75;3.05;;;;;;;;;;5065993;28;20028;-76
2022/06/17 06:14:18;;;;;;;4.82;2.83;;;;;;;;;;5068289;28;20469;-76
2022/06/17 06:16:44;;;;;;;7.40;3.20;;;;;;;;;;5060425;28;20510;-76
2022/06/17 06:19:10;;;;;;;5.90;2.63;;;;;;;;;;5062013;28;20174;-76
2022/06/17 06:21:36;;;;;;;11.38;4.57;;;;;;;;;;5066498;28;20154;-76
2022/06/17 06:24:02;;;;;;;6.90;3.17;;;;;;;;;;5065577;28;20017;-77
2022/06/17 06:26:28;;;;;;;6.15;3.00;;;;;;;;;;5057935;28;20108;-76
2022/06/17 06:28:56;;;;;;;4.40;2.97;;;;;;;;;;5058948;28;20033;-76
2022/06/17 06:31:22;;;;;;;5.85;3.58;;;;;;;;;;5057668;28;20035;-76
2022/06/17 06:33:48;;;;;;;4.78;3.15;;;;;;;;;;5061328;28;20021;-76
2022/06/17 06:36:14;;;;;;;8.40;3.47;;;;;;;;;;5055200;28;20071;-76
2022/06/17 06:38:40;;;;;;;7.63;3.42;;;;;;;;;;5063116;28;20055;-75
2022/06/17 06:41:07;;;;;;;9.02;3.50;;;;;;;;;;5061066;28;20378;-76
2022/06/17 06:43:34;;;;;;;6.60;3.20;;;;;;;;;;5068021;28;20532;-77
2022/06/17 06:46:04;;;;;;;6.05;4.22;;;;;;;;;;5064431;28;20102;-77
2022/06/17 06:48:30;;;;;;;5.90;3.47;;;;;;;;;;5064991;28;20074;-75
2022/06/17 06:50:56;;;;;;;7.70;3.00;;;;;;;;;;5055616;28;20043;-76
2022/06/17 06:53:22;;;;;;;8.15;3.38;;;;;;;;;;5064036;28;20510;-76
2022/06/17 06:55:49;;;;;;;9.77;3.60;;;;;;;;;;5065249;28;20021;-76
2022/06/17 06:58:20;;;;;;;6.63;3.15;;;;;;;;;;5067710;28;20493;-76
2022/06/17 07:00:48;;;;;;;7.57;3.22;;;;;;;;;;5069781;28;20035;-76
2022/06/17 07:03:15;;;;;;;6.03;3.35;;;;;;;;;;5062527;28;20025;-77
2022/06/17 07:05:42;;;;;;;12.07;3.35;;;;;;;;;;5059984;28;20048;-76
2022/06/17 07:08:10;;;;;;;4.88;3.13;;;;;;;;;;5068861;28;20028;-77
2022/06/17 07:10:36;;;;;;;5.70;3.50;;;;;;;;;;5058082;28;20491;-76
2022/06/17 07:13:03;;;;;;;5.28;3.50;;;;;;;;;;5059883;28;20020;-77
2022/06/17 07:15:29;;;;;;;9.80;3.17;;;;;;;;;;5067403;28;20032;-76
2022/06/17 07:17:56;;;;;;;7.95;3.05;;;;;;;;;;5062923;28;20052;-77
2022/06/17 07:20:23;;;;;;;7.03;3.17;;;;;;;;;;5060177;28;20021;-76
2022/06/17 07:22:49;;;;;;;8.43;3.70;;;;;;;;;;5061721;28;20032;-76
2022/06/17 07:25:15;;;;;;;6.03;3.33;;;;;;;;;;5063753;28;20574;-76
2022/06/17 07:27:42;;;;;;;9.55;3.40;;;;;;;;;;5057710;28;20056;-77
2022/06/17 07:30:09;;;;;;;12.18;3.42;;;;;;;;;;5065277;28;20021;-76
2022/06/17 07:32:35;;;;;;;5.97;3.03;;;;;;;;;;5067119;28;20062;-75
2022/06/17 07:35:01;;;;;;;5.80;3.47;;;;;;;;;;5064404;28;20029;-76
2022/06/17 07:40:12;;;;;;;5.30;3.40;;;;;;;;;;5074692;28;20115;-77
2022/06/17 07:42:38;;;;;;;12.75;3.17;;;;;;;;;;5066706;28;20278;-77
2022/06/17 07:45:17;;;;;;;22.27;3.67;;;;;;;;;;5060446;28;20021;-75
2022/06/17 07:47:48;;;;;;;5.50;3.10;;;;;;;;;;5058792;28;20498;-76
2022/06/17 07:50:16;;;;;;;8.73;3.85;;;;;;;;;;5059660;28;20032;-76
2022/06/17 07:52:43;;;;;;;6.68;3.75;;;;;;;;;;5059826;28;20083;-77
2022/06/17 07:55:10;;;;;;;6.47;3.58;;;;;;;;;;5062158;28;20028;-76
2022/06/17 07:57:36;;;;;;;12.35;4.05;;;;;;;;;;5060658;28;20031;-76
2022/06/17 08:00:08;;;;;;;7.35;3.33;;;;;;;;;;5063656;28;20394;-76
2022/06/17 08:02:34;;;;;;;8.88;3.50;;;;;;;;;;5060016;28;20142;-77
2022/06/17 08:05:00;;;;;;;8.60;3.65;;;;;;;;;;5060512;28;20027;-75
2022/06/17 08:07:28;;;;;;;11.63;3.80;;;;;;;;;;5059930;28;20127;-77
2022/06/17 08:09:54;;;;;;;6.20;3.08;;;;;;;;;;5058784;28;20042;-78
2022/06/17 08:12:20;;;;;;;5.55;3.78;;;;;;;;;;5062224;28;20035;-76
2022/06/17 08:14:47;;;;;;;9.25;3.13;;;;;;;;;;5059611;28;20260;-76
2022/06/17 08:17:15;;;;;;;10.20;3.70;;;;;;;;;;5059776;28;20098;-76
2022/06/17 08:19:43;;;;;;;11.15;3.30;;;;;;;;;;5057305;28;20120;-78
2022/06/17 08:22:09;;;;;;;8.23;3.33;;;;;;;;;;5061157;28;20028;-76
2022/06/17 08:24:35;;;;;;;7.03;3.08;;;;;;;;;;5059103;28;20028;-77
2022/06/17 08:27:02;;;;;;;6.70;3.30;;;;;;;;;;5062797;28;20020;-78
2022/06/17 08:29:28;;;;;;;4.78;2.85;;;;;;;;;;5062397;28;20478;-78
2022/06/17 08:31:55;;;;;;;6.13;3.00;;;;;;;;;;5057962;28;20056;-78
2022/06/17 08:34:21;;;;;;;5.90;3.20;;;;;;;;;;5061959;28;20074;-77
2022/06/17 08:36:48;;;;;;;10.73;3.47;;;;;;;;;;5060428;28;20343;-77
2022/06/17 08:39:15;;;;;;;9.20;3.55;;;;;;;;;;5059137;28;20056;-77
2022/06/17 08:41:52;;;;;;;7.32;3.72;;;;;;;;;;5061462;28;20109;-77
2022/06/17 08:44:28;;;;;;;5.95;3.30;;;;;;;;;;5062974;28;20094;-76
2022/06/17 08:47:14;;;;;;;5.60;3.00;;;;;;;;;;5062847;28;20024;-77
2022/06/17 08:49:55;;;;;;;6.45;3.72;;;;;;;;;;5063119;28;20042;-77
2022/06/17 08:52:29;;;;;;;7.57;4.07;;;;;;;;;;5061908;28;20034;-77
2022/06/17 08:54:55;;;;;;;9.70;3.53;;;;;;;;;;5078143;28;20516;-76
2022/06/17 08:57:24;;;;;;;4.93;2.90;;;;;;;;;;5061601;28;20055;-77
2022/06/17 08:59:56;;;;;;;6.95;4.20;;;;;;;;;;5061339;28;20505;-77
2022/06/17 09:02:41;;;;;;;9.15;3.13;;;;;;;;;;5063218;28;20025;-76
2022/06/17 09:05:10;;;;;;;4.53;3.08;;;;;;;;;;5060154;28;20157;-76
2022/06/17 09:07:42;;;;;;;7.90;3.38;;;;;;;;;;5076071;28;20478;-77
2022/06/17 09:10:14;;;;;;;6.75;3.15;;;;;;;;;;5062560;28;20029;-78
2022/06/17 09:13:15;;;;;;;9.00;3.50;;;;;;;;;;5066142;28;20020;-76
2022/06/17 09:16:02;;;;;;;7.68;3.83;;;;;;;;;;4999344;28;20076;-76
2022/06/17 09:18:30;;;;;;;8.88;2.92;;;;;;;;;;5040824;28;20044;-76
2022/06/17 09:21:02;;;;;;;5.13;3.08;;;;;;;;;;5067579;28;20024;-77
2022/06/17 09:23:30;;;;;;;9.00;3.50;;;;;;;;;;5063332;28;20060;-78
2022/06/17 09:25:57;;;;;;;6.35;2.97;;;;;;;;;;5082155;28;20021;-79
2022/06/17 09:28:50;;;;;;;7.07;3.67;;;;;;;;;;5070304;28;20031;-78
2022/06/17 09:31:22;;;;;;;11.65;3.70;;;;;;;;;;5066400;28;20051;-78
2022/06/17 09:33:58;;;;;;;7.18;3.47;;;;;;;;;;5065391;28;20041;-77
2022/06/17 09:36:30;;;;;;;6.55;3.83;;;;;;;;;;5065511;28;20111;-76
2022/06/17 09:39:07;;;;;;;6.05;3.83;;;;;;;;;;5063466;28;20491;-78
2022/06/17 09:41:37;;;;;;;5.53;4.07;;;;;;;;;;5067282;28;20531;-77
2022/06/17 09:44:06;;;;;;;9.63;4.82;;;;;;;;;;5064622;28;20498;-76
2022/06/17 09:46:35;;;;;;;7.03;3.85;;;;;;;;;;5070228;28;20127;-78
2022/06/17 09:49:06;;;;;;;5.63;3.63;;;;;;;;;;5068413;28;20083;-77
2022/06/17 09:51:41;;;;;;;6.85;3.17;;;;;;;;;;5069579;28;20044;-78
2022/06/17 09:54:07;;;;;;;;;;;;;;;;;;5082026;28;20055;-78
2022/06/17 09:56:43;;;;;;;8.98;3.15;;;;;;;;;;5064526;28;20382;-76
2022/06/17 09:59:22;;;;;;;7.82;3.10;;;;;;;;;;5066308;28;20419;-77
2022/06/17 10:01:48;;;;;;;6.38;3.17;;;;;;;;;;5066081;28;20031;-77
2022/06/17 10:04:15;;;;;;;10.32;3.50;;;;;;;;;;5070287;28;20024;-77
2022/06/17 10:06:55;;;;;;;5.97;3.80;;;;;;;;;;5070657;28;20024;-77
2022/06/17 10:09:27;;;;;;;4.38;2.92;;;;;;;;;;5068916;28;20024;-77
2022/06/17 10:12:19;;;;;;;5.05;3.00;;;;;;;;;;5067689;28;20024;-77
2022/06/17 10:15:08;;;;;;;7.38;3.00;;;;;;;;;;5067921;28;20103;-77
2022/06/17 10:20:52;;;;;;;5.10;3.08;;;;;;;;;;5068256;28;20047;-75
2022/06/17 10:23:18;;;;;;;7.63;3.05;;;;;;;;;;5066400;28;20028;-77
2022/06/17 10:25:54;;;;;;;5.03;3.33;;;;;;;;;;5075092;28;20025;-78
2022/06/17 10:28:20;;;;;;;6.88;3.05;;;;;;;;;;5069681;28;20032;-77
2022/06/17 10:30:58;;;;;;;6.05;3.35;;;;;;;;;;5065121;28;20125;-77
2022/06/17 10:33:25;;;;;;;9.15;2.90;;;;;;;;;;5063789;28;20090;-77
2022/06/17 10:35:51;;;;;;;6.63;3.45;;;;;;;;;;5066353;28;20428;-77
2022/06/17 10:38:20;;;;;;;7.03;3.42;;;;;;;;;;5063342;28;20161;-77
2022/06/17 10:40:46;;;;;;;8.85;3.90;;;;;;;;;;5061900;28;20064;-77
2022/06/17 10:43:16;;;;;;;6.60;3.35;;;;;;;;;;5063443;28;20023;-78
2022/06/17 10:45:42;;;;;;;5.30;3.65;;;;;;;;;;5064270;28;20024;-77
2022/06/17 10:48:20;;;;;;;6.63;3.00;;;;;;;;;;5064127;28;20059;-77
2022/06/17 10:50:47;;;;;;;6.95;3.83;;;;;;;;;;5062171;28;20461;-76
2022/06/17 10:53:28;;;;;;;5.43;3.03;;;;;;;;;;5065055;28;20024;-76
2022/06/17 10:55:56;;;;;;;6.60;2.90;;;;;;;;;;5062421;28;20020;-77
2022/06/17 10:58:24;;;;;;;5.78;2.70;;;;;;;;;;5066928;28;20025;-77
2022/06/17 11:00:56;;;;;;;8.25;3.72;;;;;;;;;;5059067;28;20036;-77
2022/06/17 11:03:32;;;;;;;5.95;2.60;;;;;;;;;;5060576;28;20413;-75
2022/06/17 11:05:58;;;;;;;4.85;2.72;;;;;;;;;;5063161;28;20569;-77
2022/06/17 11:08:26;;;;;;;7.35;3.55;;;;;;;;;;5068121;28;20479;-77
2022/06/17 11:10:54;;;;;;;4.05;3.20;;;;;;;;;;5064079;28;20020;-77
2022/06/17 11:13:21;;;;;;;4.78;3.15;;;;;;;;;;5064765;28;20111;-77
2022/06/17 11:15:50;;;;;;;5.88;3.55;;;;;;;;;;5061388;28;20040;-75
2022/06/17 11:18:28;;;;;;;4.65;3.10;;;;;;;;;;5061791;28;20063;-78
2022/06/17 11:20:56;;;;;;;6.43;3.08;;;;;;;;;;5060113;28;20130;-75
2022/06/17 11:23:44;;;;;;;2.95;2.60;;;;;;;;;;5058517;28;20021;-76
2022/06/17 11:26:16;;;;;;;4.25;2.60;;;;;;;;;;5062794;28;20478;-76
2022/06/17 11:28:43;;;;;;;4.97;3.03;;;;;;;;;;5059608;28;20058;-75
2022/06/17 11:31:13;;;;;;;4.85;3.05;;;;;;;;;;5076454;28;20060;-76
2022/06/17 11:33:54;;;;;;;5.13;2.70;;;;;;;;;;5059336;28;20029;-76
2022/06/17 11:36:22;;;;;;;4.53;2.88;;;;;;;;;;5063903;28;20788;-76
2022/06/17 11:38:48;;;;;;;3.05;2.75;;;;;;;;;;5060041;28;20167;-78
2022/06/17 11:41:21;;;;;;;3.42;3.08;;;;;;;;;;5060837;28;20021;-76
2022/06/17 11:43:47;;;;;;;3.60;3.25;;;;;;;;;;5062087;28;20424;-78
2022/06/17 11:46:21;;;;;;;5.20;3.33;;;;;;;;;;5058199;28;20036;-76
2022/06/17 11:48:49;;;;;;;4.82;3.47;;;;;;;;;;5060404;28;20028;-75
2022/06/17 11:51:51;;;;;;;3.97;2.83;;;;;;;;;;5061641;28;20638;-77
2022/06/17 11:54:23;;;;;;;8.07;2.78;;;;;;;;;;5036309;28;20496;-77
2022/06/17 11:56:50;;;;;;;5.30;2.83;;;;;;;;;;5050245;28;20412;-76
2022/06/17 11:59:21;;;;;;;3.53;2.85;;;;;;;;;;5061701;28;20029;-77
2022/06/17 12:01:53;;;;;;;3.63;2.80;;;;;;;;;;5058629;28;20067;-77
2022/06/17 12:04:39;;;;;;;6.40;2.80;;;;;;;;;;5077641;28;20577;-77
2022/06/17 12:07:20;;;;;;;3.97;2.50;;;;;;;;;;5061086;28;20039;-77
2022/06/17 12:09:47;;;;;;;3.20;2.10;;;;;;;;;;5060501;28;20036;-77
2022/06/17 12:12:16;;;;;;;3.08;2.08;;;;;;;;;;5057009;28;20359;-77
2022/06/17 12:14:51;;;;;;;2.60;2.13;;;;;;;;;;5061337;28;20024;-76
2022/06/17 12:17:18;;;;;;;3.35;2.25;;;;;;;;;;5058266;28;20049;-76
2022/06/17 12:19:45;;;;;;;6.50;2.38;;;;;;;;;;5062257;28;20080;-77
2022/06/17 12:22:17;;;;;;;3.47;2.40;;;;;;;;;;5062595;28;20402;-76
2022/06/17 12:24:47;;;;;;;3.00;2.20;;;;;;;;;;5063466;28;20474;-77
2022/06/17 12:27:32;;;;;;;2.88;2.25;;;;;;;;;;5065121;28;20021;-77
2022/06/17 12:29:58;;;;;;;;;;;;;;;;;;5063422;28;20166;-77
2022/06/17 12:32:24;;;;;;;4.22;2.25;;;;;;;;;;5066542;28;19972;-76
2022/06/17 12:35:03;;;;;;;5.30;2.33;;;;;;;;;;5064488;28;20121;-76
2022/06/17 12:37:48;;;;;;;2.58;2.38;;;;;;;;;;5062773;28;20043;-78
2022/06/17 12:40:14;;;;;;;3.88;2.10;;;;;;;;;;5066870;28;20463;-77
2022/06/17 12:42:40;;;;;;;3.55;2.10;;;;;;;;;;5066761;28;20016;-77
2022/06/17 12:45:06;;;;;;;2.10;1.90;;;;;;;;;;5069272;28;20028;-78
2022/06/17 12:47:47;;;;;;;2.65;2.20;;;;;;;;;;5064748;28;20093;-77
2022/06/17 12:53:40;;;;;;;3.28;1.83;;;;;;;;;;5062182;28;20473;-77
2022/06/17 12:56:25;;;;;;;3.17;2.10;;;;;;;;;;5022048;28;20106;-76
2022/06/17 12:59:16;;;;;;;3.47;2.22;;;;;;;;;;5081430;28;20032;-78
2022/06/17 13:01:53;;;;;;;2.35;2.00;;;;;;;;;;5064968;28;20190;-77
2022/06/17 13:04:34;;;;;;;4.43;1.88;;;;;;;;;;5058730;28;20030;-76
2022/06/17 13:07:00;;;;;;;2.20;2.00;;;;;;;;;;5060731;28;20426;-76
2022/06/17 13:09:41;;;;;;;2.15;1.92;;;;;;;;;;5063458;28;20025;-76
2022/06/17 13:12:17;;;;;;;3.03;1.80;;;;;;;;;;5059789;28;20051;-76
2022/06/17 13:15:02;;;;;;;3.00;2.10;;;;;;;;;;5057198;28;20029;-76
2022/06/17 13:17:34;;;;;;;2.50;2.00;;;;;;;;;;5060321;28;20052;-76
2022/06/17 13:20:18;;;;;;;3.22;2.00;;;;;;;;;;5061123;28;20104;-78
2022/06/17 13:22:45;;;;;;;2.05;1.80;;;;;;;;;;5062912;28;20521;-76
2022/06/17 13:25:17;;;;;;;1.85;1.70;;;;;;;;;;5058490;28;20032;-76
2022/06/17 13:28:02;;;;;;;3.38;2.03;;;;;;;;;;5057770;28;20020;-76
2022/06/17 13:30:34;;;;;;;1.92;1.70;;;;;;;;;;5061653;28;20052;-76
2022/06/17 13:33:10;;;;;;;2.08;1.70;;;;;;;;;;5059199;28;20041;-75
2022/06/17 13:35:39;;;;;;;1.98;1.80;;;;;;;;;;5057550;28;20029;-75
2022/06/17 13:38:16;;;;;;;1.90;1.80;;;;;;;;;;5060709;28;20025;-77
2022/06/17 13:40:48;;;;;;;2.65;1.90;;;;;;;;;;5057931;28;20023;-77
2022/06/17 13:43:19;;;;;;;1.70;1.60;;;;;;;;;;5061424;28;20017;-75
2022/06/17 13:45:49;;;;;;;2.10;1.90;;;;;;;;;;5059438;28;20032;-75
2022/06/17 13:48:20;;;;;;;2.60;1.80;;;;;;;;;;5058674;28;20059;-76
2022/06/17 13:50:55;;;;;;;2.10;1.90;;;;;;;;;;5058589;28;20032;-77
2022/06/17 13:53:25;;;;;;;2.45;2.17;;;;;;;;;;5059558;28;20355;-75
2022/06/17 13:56:03;;;;;;;2.25;2.03;;;;;;;;;;5055574;28;20055;-76
2022/06/17 13:58:38;;;;;;;3.35;1.98;;;;;;;;;;5059903;28;20055;-75
2022/06/17 14:01:25;;;;;;;2.20;2.00;;;;;;;;;;5060783;28;20113;-76
2022/06/17 14:03:54;;;;;;;2.65;1.80;;;;;;;;;;5058750;28;20410;-75
2022/06/17 14:06:21;;;;;;;2.47;1.92;;;;;;;;;;5061559;28;20048;-76
2022/06/17 14:09:08;;;;;;;2.15;1.98;;;;;;;;;;5061137;28;20024;-75
2022/06/17 14:11:44;;;;;;;2.85;2.20;;;;;;;;;;5059874;28;20027;-77
2022/06/17 14:14:20;;;;;;;2.22;1.92;;;;;;;;;;5062392;28;20028;-76
2022/06/17 14:16:46;;;;;;;2.03;1.83;;;;;;;;;;5062402;28;20048;-76
2022/06/17 14:19:16;;;;;;;1.88;1.75;;;;;;;;;;5060215;28;20064;-77
2022/06/17 14:21:47;;;;;;;1.92;1.80;;;;;;;;;;5063185;28;20035;-76
2022/06/17 14:24:15;;;;;;;1.95;1.70;;;;;;;;;;5063299;28;20053;-75
2022/06/17 14:26:41;;;;;;;1.90;1.80;;;;;;;;;;5063035;28;20106;-76
2022/06/17 14:29:14;;;;;;;2.20;2.00;;;;;;;;;;5062032;28;20078;-76
2022/06/17 14:31:41;;;;;;;2.28;1.80;;;;;;;;;;5077769;28;20535;-74
2022/06/17 14:34:18;;;;;;;1.95;1.75;;;;;;;;;;5061099;28;20050;-76
2022/06/17 14:36:56;;;;;;;1.85;1.63;;;;;;;;;;5060131;28;20079;-75
2022/06/17 14:39:34;;;;;;;3.55;2.55;;;;;;;;;;5061445;28;20017;-75
2022/06/17 14:42:05;;;;;;;2.17;1.98;;;;;;;;;;5062232;28;20035;-76
2022/06/17 14:44:34;;;;;;;3.45;2.10;;;;;;;;;;5060782;28;20371;-76
2022/06/17 14:47:23;;;;;;;2.70;2.10;;;;;;;;;;5063096;28;20116;-77
2022/06/17 14:49:55;;;;;;;2.38;2.17;;;;;;;;;;5078205;28;20028;-76
2022/06/17 14:52:21;;;;;;;2.33;2.13;;;;;;;;;;5060731;28;20080;-77
2022/06/17 14:54:59;;;;;;;3.17;1.92;;;;;;;;;;5061508;28;20028;-76
2022/06/17 14:57:26;;;;;;;3.25;2.10;;;;;;;;;;5061029;28;20816;-75
2022/06/17 15:00:02;;;;;;;2.30;2.10;;;;;;;;;;5061760;28;20107;-76
2022/06/17 15:02:38;;;;;;;2.42;2.22;;;;;;;;;;5062375;28;20059;-75
2022/06/17 15:05:04;;;;;;;2.65;2.25;;;;;;;;;;5060233;28;20016;-75
2022/06/17 15:07:37;;;;;;;2.40;2.00;;;;;;;;;;5060297;28;20024;-74
2022/06/17 15:10:05;;;;;;;2.00;1.90;;;;;;;;;;5061435;28;20024;-76
2022/06/17 15:12:34;;;;;;;2.58;2.38;;;;;;;;;;5060452;28;20312;-76
2022/06/17 15:15:06;;;;;;;2.10;1.90;;;;;;;;;;5061457;28;20024;-76
2022/06/17 15:17:53;;;;;;;2.28;2.03;;;;;;;;;;5079571;28;20853;-75